• Join FlightAware (Why Join?)
  • Login
  • US Flag 
03:23AM EDT


 

Airport Tracker/Info


-or-


 

Live Flight TrackerFlight Track Log ✈ SWA1096 ✈ 19-Apr-2013 ✈ KSLC - KBWI

Flight Track Log - Related Links

Times and Time Zones

All times are in EDT time to prevent confusion due to time zone crossing. See the SWA1096 flight status page for this flight to view local times or setup timezone preferences in your user account.

Time Position Orientation Groundspeed Altitude Reporting Facility
EDT Latitude Longitude Course Direction KTS MPH feet Rate Location/Type
11:11AM 40.7553 -112.0478 237° Southwest 206 237 7,000  Level Salt Lake Center
11:12AM 40.8033 -112.1164 313° West 251 289 10,700 3,240 Climbing Salt Lake Center
11:13AM 40.8550 -112.0753 31° Northeast 281 323 13,600 2,760 Climbing Salt Lake Center
11:14AM 40.8928 -111.9725 64° Northeast 316 364 16,100 2,160 Climbing Salt Lake Center
11:15AM 40.9344 -111.8642 63° Northeast 334 384 18,100 2,220 Climbing Salt Lake Center
11:16AM 40.9678 -111.7053 74° East 395 455 20,700 2,340 Climbing Salt Lake Center
11:17AM 40.9903 -111.5586 78° East 412 474 23,000 2,100 Climbing Salt Lake Center
11:18AM 41.0131 -111.4042 79° East 431 496 25,100 1,920 Climbing Salt Lake Center
11:19AM 41.0364 -111.2456 79° East 439 505 27,000 1,680 Climbing Salt Lake Center
11:20AM 41.0597 -111.0819 79° East 450 518 28,600 1,680 Climbing Salt Lake Center
11:21AM 41.0892 -110.8803 79° East 462 532 30,500 1,860 Climbing Salt Lake Center
11:22AM 41.1136 -110.7086 79° East 471 542 32,500 1,800 Climbing Salt Lake Center
11:23AM 41.1353 -110.5461 80° East 470 541 34,300 1,560 Climbing Salt Lake Center
11:24AM 41.1606 -110.3608 80° East 462 532 35,800 1,200 Climbing Salt Lake Center
11:25AM 41.1833 -110.1978 79° East 468 539 36,800 540 Climbing Salt Lake Center
11:26AM 41.2094 -110.0067 80° East 472 543 37,000 60 Climbing Salt Lake Center
11:27AM 41.2314 -109.8428 80° East 472 543 37,000  Level Salt Lake Center
11:28AM 41.2519 -109.6814 80° East 467 537 37,000  Level Salt Lake Center
11:29AM 41.2767 -109.4933 80° East 464 534 37,000  Level Salt Lake Center
11:30AM 41.2972 -109.3325 80° East 464 534 37,000  Level Salt Lake Center
11:31AM 41.3208 -109.1467 80° East 465 535 37,000  Level Salt Lake Center
11:32AM 41.3458 -108.9628 80° East 463 533 37,000  Level Salt Lake Center
11:33AM 41.3653 -108.8031 81° East 462 532 37,000  Level Salt Lake Center
11:34AM 41.3889 -108.6122 81° East 470 541 37,000  Level Salt Lake Center
11:35AM 41.4089 -108.4475 81° East 473 544 37,000  Level Salt Lake Center
11:36AM 41.4314 -108.2544 81° East 473 544 37,000  Level Salt Lake Center
11:37AM 41.4506 -108.0897 81° East 472 543 37,000  Level Salt Lake Center
11:38AM 41.4569 -108.0325 82° East 473 544 37,000  Level Denver Center
11:39AM 41.4758 -107.8664 81° East 474 545 37,000  Level Denver Center
11:40AM 41.4989 -107.6731 81° East 474 545 37,000  Level Denver Center
11:41AM 41.5172 -107.5078 82° East 472 543 37,000  Level Denver Center
11:42AM 41.5386 -107.3178 81° East 465 535 37,000  Level Denver Center
11:43AM 41.5567 -107.1522 82° East 470 541 37,000  Level Denver Center
11:44AM 41.5669 -106.9569 86° East 471 542 37,000  Level Denver Center
11:45AM 41.5678 -106.7869 90° East 478 550 37,000  Level Denver Center
11:46AM 41.5714 -106.5881 89° East 481 554 37,000  Level Denver Center
11:47AM 41.5717 -106.4183 90° East 479 551 37,000  Level Denver Center
11:48AM 41.5739 -106.2211 89° East 478 550 37,000  Level Denver Center
11:49AM 41.5772 -106.0542 88° East 473 544 37,000  Level Denver Center
11:50AM 41.5781 -105.8600 90° East 471 542 37,000  Level Denver Center
11:51AM 41.5767 -105.6878 91° East 480 552 37,000  Level Denver Center
11:52AM 41.5783 -105.4931 89° East 475 547 37,000  Level Denver Center
11:53AM 41.5778 -105.3253 90° East 475 547 37,000  Level Denver Center
11:54AM 41.5775 -105.1297 90° East 474 545 37,000  Level Denver Center
11:55AM 41.5772 -104.9625 90° East 474 545 37,000  Level Denver Center
11:56AM 41.5767 -104.7722 90° East 464 534 37,000  Level Denver Center
11:57AM 41.5764 -104.6081 90° East 465 535 37,000  Level Denver Center
11:58AM 41.5747 -104.4147 91° East 469 540 37,000  Level Denver Center
11:59AM 41.5739 -104.2469 90° East 474 545 37,000  Level Denver Center
12:00PM 41.5725 -104.0533 90° East 471 542 37,000  Level Denver Center
12:01PM 41.5703 -103.8864 91° East 472 543 37,000  Level Denver Center
12:03PM 41.5681 -103.6908 91° East 473 544 37,000  Level Denver Center
12:04PM 41.5656 -103.5242 91° East 473 544 37,000  Level Denver Center
12:05PM 41.5633 -103.3253 91° East 479 551 37,000  Level Denver Center
12:06PM 41.5597 -103.1569 92° East 479 551 37,000  Level Denver Center
12:07PM 41.5575 -102.9875 91° East 479 551 37,000  Level Denver Center
12:08PM 41.5522 -102.7919 92° East 474 545 37,000  Level Denver Center
12:09PM 41.5494 -102.6267 91° East 469 540 37,000  Level Denver Center
12:10PM 41.5522 -102.4322 89° East 470 541 37,000  Level Denver Center
12:11PM 41.5556 -102.2658 88° East 469 540 37,000  Level Denver Center
12:12PM 41.5600 -102.0706 88° East 471 542 37,000  Level Denver Center
12:13PM 41.5622 -101.9033 89° East 470 541 37,000  Level Denver Center
12:14PM 41.5636 -101.7103 89° East 467 537 37,000  Level Denver Center
12:15PM 41.5650 -101.5436 89° East 467 537 37,000  Level Denver Center
12:16PM 41.5667 -101.3503 89° East 465 535 37,000  Level Denver Center
12:17PM 41.5672 -101.1833 90° East 468 539 37,000  Level Denver Center
12:18PM 41.5686 -100.9897 89° East 468 539 37,000  Level Denver Center
12:19PM 41.5681 -100.8244 90° East 465 535 37,000  Level Denver Center
12:20PM 41.5692 -100.6556 89° East 472 543 37,000  Level Denver Center
12:21PM 41.5694 -100.4572 90° East 476 548 37,000  Level Denver Center
12:22PM 41.5689 -100.2869 90° East 477 549 37,000  Level Denver Center
12:23PM 41.5681 -100.0881 90° East 478 550 37,000  Level Denver Center
12:24PM 41.5669 -99.9175 90° East 479 551 37,000  Level Denver Center
12:25PM 41.5658 -99.7411 90° East 479 551 37,000  Level Denver Center
12:26PM 41.5642 -99.5622 91° East 480 552 37,000  Level Denver Center
12:27PM 41.5625 -99.3483 91° East 479 551 37,000  Level Denver Center
12:28PM 41.5606 -99.1703 91° East 477 549 37,000  Level Denver Center
12:29PM 41.5594 -99.0628 91° East 478 550 37,000  Level Minneapolis Center
12:30PM 41.5575 -98.8808 91° East 482 555 37,000  Level Minneapolis Center
12:31PM 41.5531 -98.6931 92° East 489 563 37,000  Level Minneapolis Center
12:32PM 41.5522 -98.5108 90° East 491 565 37,000  Level Minneapolis Center
12:33PM 41.5478 -98.3303 92° East 490 564 37,000  Level Minneapolis Center
12:34PM 41.5436 -98.1508 92° East 486 559 37,000  Level Minneapolis Center
12:35PM 41.5408 -97.9728 91° East 484 557 37,000  Level Minneapolis Center
12:36PM 41.5356 -97.7936 92° East 484 557 37,000  Level Minneapolis Center
12:37PM 41.5317 -97.6147 92° East 483 556 37,000  Level Minneapolis Center
12:38PM 41.5256 -97.4008 92° East 482 555 37,000  Level Minneapolis Center
12:39PM 41.5211 -97.2219 92° East 482 555 37,000  Level Minneapolis Center
12:40PM 41.5156 -97.0436 92° East 482 555 37,000  Level Minneapolis Center
12:41PM 41.5106 -96.8664 92° East 480 552 37,000  Level Minneapolis Center
12:42PM 41.5036 -96.6883 93° East 480 552 37,000  Level Minneapolis Center
12:43PM 41.4986 -96.5108 92° East 479 551 37,000  Level Minneapolis Center
12:44PM 41.4919 -96.3292 93° East 478 550 37,000  Level Minneapolis Center
12:45PM 41.4853 -96.1531 93° East 477 549 37,000  Level Minneapolis Center
12:46PM 41.4786 -95.9750 93° East 479 551 37,000  Level Minneapolis Center
12:47PM 41.4711 -95.7619 93° East 479 551 37,000  Level Minneapolis Center
12:49PM 41.4631 -95.6103 94° East 482 555 37,000  Level Minneapolis Center
12:50PM 41.4519 -95.3928 94° East 485 558 37,000  Level Minneapolis Center
12:51PM 41.4458 -95.2119 93° East 486 559 37,000  Level Minneapolis Center
12:52PM 41.4372 -95.0272 93° East 495 570 37,000  Level Minneapolis Center
12:53PM 41.4283 -94.8433 94° East 497 572 37,000  Level Minneapolis Center
12:54PM 41.4203 -94.6583 93° East 499 574 37,000  Level Minneapolis Center
12:55PM 41.4097 -94.4725 94° East 502 578 37,000  Level Minneapolis Center
12:56PM 41.3953 -94.2881 96° East 501 577 37,000  Level Minneapolis Center
12:57PM 41.3833 -94.0736 94° East 497 572 37,000  Level Minneapolis Center
12:58PM 41.3739 -93.8914 94° East 495 570 37,000  Level Minneapolis Center
12:59PM 41.3625 -93.7106 95° East 494 568 37,000  Level Minneapolis Center
01:00PM 41.3522 -93.5306 94° East 492 566 37,000  Level Minneapolis Center
01:01PM 41.3431 -93.3469 94° East 496 571 37,000  Level Minneapolis Center
01:02PM 41.3336 -93.2019 95° East 496 571 37,000  Level Minneapolis Center
01:03PM 41.3172 -92.9511 95° East 490 564 37,000  Level Minneapolis Center
01:04PM 41.3053 -92.7739 95° East 487 560 37,000  Level Minneapolis Center
01:05PM 41.2931 -92.5917 95° East 490 564 37,000  Level Chicago Center
01:06PM 41.2800 -92.4106 95° East 493 567 37,000  Level Chicago Center
01:07PM 41.2686 -92.2269 95° East 495 570 37,000  Level Chicago Center
01:08PM 41.2525 -92.0103 96° East 496 571 37,000  Level Chicago Center
01:09PM 41.2375 -91.8278 96° East 497 572 37,000  Level Chicago Center
01:10PM 41.2225 -91.6342 96° East 496 571 37,000  Level Chicago Center
01:11PM 41.2089 -91.4533 96° East 495 570 37,000  Level Chicago Center
01:12PM 41.1944 -91.2725 96° East 493 567 37,000  Level Chicago Center
01:13PM 41.1792 -91.0911 96° East 493 567 37,000  Level Chicago Center
01:14PM 41.1644 -90.9100 96° East 494 568 37,000  Level Chicago Center
01:15PM 41.1483 -90.7286 97° East 495 570 37,000  Level Chicago Center
01:16PM 41.1333 -90.5483 96° East 493 567 37,000  Level Chicago Center
01:17PM 41.1139 -90.3303 97° East 495 570 37,000  Level Chicago Center
01:18PM 41.0978 -90.1514 97° East 489 563 37,000  Level Chicago Center
01:19PM 41.0817 -89.9711 97° East 489 563 37,000  Level Chicago Center
01:21PM 41.0642 -89.7911 97° East 488 562 37,000  Level Chicago Center
01:22PM 41.0478 -89.6108 97° East 489 563 37,000  Level Chicago Center
01:23PM 41.0303 -89.4297 97° East 490 564 37,000  Level Chicago Center
01:24PM 41.0128 -89.2508 97° East 490 564 37,000  Level Chicago Center
01:25PM 40.9944 -89.0731 98° East 486 559 37,000  Level Chicago Center
01:26PM 40.9761 -88.8939 98° East 488 562 37,000  Level Chicago Center
01:27PM 40.9550 -88.6844 98° East 493 567 37,000  Level Chicago Center
01:28PM 40.9369 -88.5092 98° East 488 562 37,000  Level Chicago Center
01:29PM 40.9175 -88.3308 98° East 493 567 37,000  Level Chicago Center
01:30PM 40.8989 -88.1536 98° East 493 567 37,000  Level Chicago Center
01:31PM 40.8758 -87.9411 98° East 493 567 37,000  Level Chicago Center
01:32PM 40.8561 -87.7636 98° East 494 568 37,000  Level Chicago Center
01:33PM 40.8369 -87.5886 98° East 491 565 37,000  Level Chicago Center
01:34PM 40.8156 -87.4119 99° East 491 565 37,000  Level Chicago Center
01:35PM 40.7961 -87.2364 98° East 491 565 37,000  Level Chicago Center
01:36PM 40.7711 -87.0272 99° East 488 562 37,000  Level Chicago Center
01:37PM 40.7500 -86.8531 99° East 485 558 37,000  Level Chicago Center
01:38PM 40.7292 -86.6856 99° East 480 552 37,000  Level Chicago Center
01:39PM 40.7064 -86.5131 100° East 481 554 37,000  Level Chicago Center
01:40PM 40.6856 -86.3378 99° East 487 560 37,000  Level Chicago Center
01:41PM 40.6586 -86.1281 100° East 489 563 37,000  Level Chicago Center
01:42PM 40.6364 -85.9536 99° East 489 563 37,000  Level Chicago Center
01:43PM 40.6142 -85.7803 100° East 487 560 37,000  Level Chicago Center
01:44PM 40.5917 -85.6086 100° East 483 556 37,000  Level Chicago Center
01:45PM 40.5678 -85.4364 100° East 483 556 37,000  Level Chicago Center
01:46PM 40.5264 -85.2753 109° East 475 547 37,000  Level Chicago Center
01:47PM 40.4761 -85.0822 109° East 469 540 37,000  Level Chicago Center
01:48PM 40.4344 -84.9197 109° East 472 543 37,000  Level Chicago Center
01:49PM 40.3925 -84.7564 109° East 474 545 37,000  Level Chicago Center
01:51PM 40.3461 -84.5558 107° East 473 544 37,000  Level Indianapolis Center
01:52PM 40.3078 -84.3883 107° East 474 545 37,000  Level Indianapolis Center
01:53PM 40.2644 -84.1953 106° East 471 542 37,000  Level Indianapolis Center
01:54PM 40.2547 -84.0125 94° East 490 564 37,000  Level Indianapolis Center
01:56PM 40.2386 -83.6919 94° East 500 575 37,000  Level Chicago Center
01:57PM 40.1997 -83.4856 104° East 472 543 37,000  Level Indianapolis Center
01:58PM 40.1708 -83.3147 102° East 472 543 37,000  Level Indianapolis Center
01:59PM 40.1414 -83.1444 103° East 473 544 37,000  Level Indianapolis Center
02:00PM 40.1292 -82.9650 95° East 489 563 37,000  Level Indianapolis Center
02:01PM 40.1147 -82.7872 96° East 486 559 37,000  Level Indianapolis Center
02:02PM 40.1000 -82.6106 96° East 486 559 37,000  Level Indianapolis Center
02:03PM 40.0864 -82.4353 96° East 482 555 37,000  Level Indianapolis Center
02:04PM 40.0711 -82.2586 96° East 483 556 37,000  Level Indianapolis Center
02:05PM 40.0556 -82.0842 97° East 480 552 37,000  Level Indianapolis Center
02:06PM 40.0378 -81.8825 97° East 476 548 37,000  Level Indianapolis Center
02:07PM 40.0236 -81.7231 97° East 474 545 37,000  Level Indianapolis Center
02:08PM 40.0022 -81.5561 99° East 467 537 37,000  Level Indianapolis Center
02:09PM 39.9806 -81.3872 99° East 468 539 37,000  Level Indianapolis Center
02:10PM 39.9547 -81.1914 100° East 469 540 37,000  Level Indianapolis Center
02:11PM 39.9369 -81.0811 102° East 464 534 37,000  Level Cleveland Center
02:12PM 39.9186 -80.9269 99° East 469 540 37,000  Level Cleveland Center
02:13PM 39.8981 -80.7561 99° East 471 542 37,000  Level Cleveland Center
02:14PM 39.8733 -80.5778 100° East 491 565 37,000  Level Cleveland Center
02:15PM 39.8481 -80.4100 101° East 486 559 37,000  Level Cleveland Center
02:16PM 39.8206 -80.2181 101° East 486 559 37,000 -60 Level Cleveland Center
02:17PM 39.7969 -80.0453 100° East 486 559 36,900 -900 Descending Cleveland Center
02:18PM 39.7753 -79.8753 99° East 486 559 35,200 -1,980 Descending Cleveland Center
02:20PM 39.7186 -79.4547 100° East 496 571 30,400 -2,280 Descending Washington Center
02:21PM 39.6906 -79.2833 102° East 502 578 27,700 -2,640 Descending Washington Center
02:22PM 39.6664 -79.1122 100° East 491 565 25,200 -1,380 Descending Washington Center
02:23PM 39.6314 -78.9569 106° East 465 535 25,000 -120 Descending Washington Center
02:24PM 39.5981 -78.7992 105° East 455 524 25,000 -420 Level Washington Center
02:25PM 39.5625 -78.6414 106° East 455 524 24,200 -1,920 Descending Washington Center
02:26PM 39.5269 -78.4839 106° East 455 524 21,200 -2,880 Descending Washington Center
02:27PM 39.4950 -78.3292 105° East 449 517 18,500 -2,880 Descending Washington Center
02:28PM 39.4611 -78.1747 106° East 444 511 15,500 -1,800 Descending Washington Center
02:29PM 39.4264 -78.0283 107° East 439 505 15,000 -600 Descending Washington Center
02:30PM 39.4228 -77.8939 92° East 388 447 14,300 -1,080 Descending Washington Center
02:31PM 39.4297 -77.7572 86° East 388 447 12,900 -1,260 Descending Washington Center
02:32PM 39.4361 -77.6231 86° East 383 441 11,800 -780 Descending Washington Center
02:33PM 39.4400 -77.5075 87° East 370 426 11,400 -420 Descending Washington Center
02:34PM 39.4442 -77.3839 87° East 355 409 11,000 -360 Descending Washington Center
02:35PM 39.4500 -77.3333 81° East 346 398 11,000  Level Potomac TRACON
02:35PM 39.4667 -77.2333 78° East 348 400 11,000 -780 Level Potomac TRACON
02:36PM 39.4833 -77.1167 79° East 338 389 9,600 -1,620 Descending Potomac TRACON
02:38PM 39.5167 -76.9833 72° East 336 387 7,700 -1,560 Descending Potomac TRACON
02:38PM 39.5500 -76.8833 67° East 328 377 6,500 -1,200 Descending Potomac TRACON
02:40PM 39.5833 -76.7667 70° East 313 360 5,300 -780 Descending Potomac TRACON
02:40PM 39.5667 -76.7000 108° East 255 293 5,000 -180 Descending Potomac TRACON
02:41PM 39.5333 -76.6500 131° Southeast 208 239 5,000 -480 Level Potomac TRACON
02:42PM 39.5167 -76.7000 247° West 169 194 4,200 -540 Descending Potomac TRACON
02:43PM 39.4833 -76.7500 229° Southwest 152 175 4,000 -120 Descending Potomac TRACON
02:44PM 39.4667 -76.7833 237° Southwest 146 168 4,000  Level Potomac TRACON
02:45PM 39.4333 -76.8333 229° Southwest 151 174 4,000  Level Potomac TRACON
02:46PM 39.4000 -76.8333 180° South 146 168 4,000 -360 Level Potomac TRACON
02:47PM 39.3500 -76.8333 180° South 154 177 3,300 -780 Descending Potomac TRACON
02:48PM 39.3167 -76.8000 142° Southeast 167 192 2,500 -480 Descending Potomac TRACON
02:49PM 39.2833 -76.7667 142° Southeast 160 184 2,400 -480 Descending Potomac TRACON
02:50PM 39.2500 -76.7333 142° Southeast 142 163 1,600 -780 Descending Potomac TRACON
02:51PM 39.2167 -76.7167 159° South 128 147 1,000 -720 Descending Potomac TRACON